Snake River Valley :: SLCFashionPlaceB1

liberation: 2021-10-16  09:15     latitude: 40.633407     longitude: -111.884478 33 birds
# LOFT PRING MILES ARRIVAL SPEED ToWin
1 M&T Wall AU21-SRV-0378 207.203 2021-10-16 13:34:19.363 1406.266 00:00:00
2 M&T Wall AU21-SRV-0028 207.203 2021-10-16 13:34:19.750 1406.231 00:00:00
3 M&T Wall AU21-SRV-0007 207.203 2021-10-16 13:34:21.551 1406.068 00:00:02
4 M&T Wall AU21-SRV-0024 207.203 2021-10-16 13:34:21.930 1406.034 00:00:03
5 M&T Wall AU21-SRV-0369 207.203 2021-10-16 13:34:23.396 1405.901 00:00:04
6 M&T Wall AU21-SRV-0351 207.203 2021-10-16 13:34:24.496 1405.802 00:00:05
7 M&T Wall AU21-SRV-0383 207.203 2021-10-16 13:34:28.544 1405.436 00:00:09
8 Piazza Pigeons AU21-SRV-0216 213.517 2021-10-16 13:45:34.340 1388.874 00:03:21
9 Piazza Pigeons AU21-SRV-0208 213.517 2021-10-16 13:45:59.840 1386.695 00:03:46
10 Piazza Pigeons AU21-SRV-0242 213.517 2021-10-16 13:50:49.211 1362.448 00:08:36
11 Piazza Pigeons AU21-SRV-0207 213.517 2021-10-16 13:51:03.066 1361.309 00:08:50
12 Piazza Pigeons AU21-SRV-0212 213.517 2021-10-16 13:51:15.021 1360.327 00:09:01
13 Piazza Pigeons AU21-SRV-0246 213.517 2021-10-16 13:51:20.752 1359.857 00:09:07
14 Piazza Pigeons AU21-SRV-0213 213.517 2021-10-16 13:52:17.140 1355.248 00:10:04
15 Acorn Loft AU21-ARPU-1736 196.495 2021-10-16 13:30:28.011 1353.721 00:09:33
16 Acorn Loft AU21-ARPU-1740 196.495 2021-10-16 13:30:31.018 1353.455 00:09:36
17 Piazza Pigeons AU21-SRV-0225 213.517 2021-10-16 13:55:54.577 1337.764 00:13:41
18 Piazza Pigeons AU21-SRV-0210 213.517 2021-10-16 13:55:55.150 1337.719 00:13:42
19 Piazza Pigeons AU21-SRV-0234 213.517 2021-10-16 13:57:09.623 1331.834 00:14:56
20 Piazza Pigeons AU21-SRV-0209 213.517 2021-10-16 13:57:47.413 1328.868 00:15:34
21 M&T Wall AU21-SRV-0004 207.203 2021-10-16 13:50:55.684 1321.637 00:16:36
22 Piazza Pigeons AU21-SRV-0245 213.517 2021-10-16 14:12:01.353 1265.193 00:29:48
23 Acorn Loft AU21-ARPU-1710 196.495 2021-10-16 14:44:41.685 1048.942 01:23:46
Acorn Loft AU21-ARPU-1711 0 0000-00-00 00:00:00.000 0.000 00:00:00
Acorn Loft AU21-ARPU-1716 0 0000-00-00 00:00:00.000 0.000 00:00:00
Acorn Loft AU21-ARPU-1719 0 0000-00-00 00:00:00.000 0.000 00:00:00
Acorn Loft AU21-ARPU-1732 0 0000-00-00 00:00:00.000 0.000 00:00:00
M&T Wall AU21-SRV-0001 0 0000-00-00 00:00:00.000 0.000 00:00:00
M&T Wall AU21-SRV-0038 0 0000-00-00 00:00:00.000 0.000 00:00:00
M&T Wall AU21-SRV-0373 0 0000-00-00 00:00:00.000 0.000 00:00:00
Piazza Pigeons AU21-SRV-0218 0 0000-00-00 00:00:00.000 0.000 00:00:00
Piazza Pigeons AU21-SRV-0240 0 0000-00-00 00:00:00.000 0.000 00:00:00
Piazza Pigeons AU21-SRV-0247 0 0000-00-00 00:00:00.000 0.000 00:00:00